createdAt,value
2022-11-13T00:01:57.229Z,22.58
2022-11-13T00:04:43.266Z,22.77
2022-11-13T00:07:29.206Z,22.58
2022-11-13T00:10:15.433Z,26.70
2022-11-13T00:13:01.189Z,24.65
2022-11-13T00:15:56.810Z,25.10
2022-11-13T00:18:42.923Z,24.42
2022-11-13T00:21:29.056Z,25.17
2022-11-13T00:24:15.106Z,23.08
2022-11-13T00:27:01.312Z,22.15
2022-11-13T00:29:47.174Z,21.88
2022-11-13T00:32:33.254Z,20.75
2022-11-13T00:35:19.351Z,30.55
2022-11-13T00:38:05.373Z,25.70
2022-11-13T00:40:51.410Z,27.63
2022-11-13T00:43:37.351Z,26.60
2022-11-13T00:46:23.635Z,27.42
2022-11-13T00:49:09.570Z,25.02
2022-11-13T00:51:55.291Z,28.48
2022-11-13T00:54:41.458Z,29.08
2022-11-13T00:57:27.633Z,26.77
2022-11-13T01:00:13.850Z,26.73
2022-11-13T01:03:00.145Z,27.08
2022-11-13T01:05:47.105Z,24.20
2022-11-13T01:08:33.111Z,27.75
2022-11-13T01:11:20.863Z,24.85
2022-11-13T01:14:06.842Z,23.65
2022-11-13T01:16:52.751Z,24.67
2022-11-13T01:19:38.731Z,27.50
2022-11-13T01:22:24.776Z,30.20
2022-11-13T01:25:10.814Z,28.90
2022-11-13T01:27:57.019Z,25.17
2022-11-13T01:30:42.700Z,24.73
2022-11-13T01:33:28.436Z,25.27
2022-11-13T01:36:15.457Z,33.58
2022-11-13T01:39:04.408Z,26.58
2022-11-13T01:41:50.179Z,21.65
2022-11-13T01:44:48.224Z,25.58
2022-11-13T01:47:34.152Z,22.25
2022-11-13T01:50:20.307Z,29.95
2022-11-13T01:53:08.903Z,27.20
2022-11-13T01:55:55.057Z,29.27
2022-11-13T01:58:42.790Z,25.42
2022-11-13T02:01:28.786Z,27.30
2022-11-13T02:04:14.521Z,21.40
2022-11-13T02:07:07.704Z,23.05
2022-11-13T02:09:55.461Z,19.27
2022-11-13T02:12:42.963Z,19.52
2022-11-13T02:15:29.887Z,19.50
2022-11-13T02:18:17.318Z,19.20
2022-11-13T02:21:14.524Z,21.15
2022-11-13T02:24:03.418Z,19.20
2022-11-13T02:26:51.647Z,23.67
2022-11-13T02:29:37.363Z,24.40
2022-11-13T02:32:23.307Z,22.55
2022-11-13T02:35:09.400Z,23.35
2022-11-13T02:38:02.888Z,25.10
2022-11-13T02:40:49.076Z,25.65
2022-11-13T02:43:35.078Z,24.33
2022-11-13T02:46:20.870Z,25.90
2022-11-13T02:49:07.653Z,26.02
2022-11-13T02:51:53.792Z,28.95
2022-11-13T02:54:39.978Z,30.05
2022-11-13T02:57:25.810Z,33.20
2022-11-13T03:00:14.279Z,28.45
2022-11-13T03:03:00.578Z,26.75
2022-11-13T03:05:50.006Z,27.10
2022-11-13T03:08:37.390Z,29.70
2022-11-13T03:11:23.878Z,29.92
2022-11-13T03:14:09.820Z,33.60
2022-11-13T03:16:55.686Z,26.80
2022-11-13T03:19:41.982Z,28.63
2022-11-13T03:22:28.109Z,27.80
2022-11-13T03:25:14.388Z,26.23
2022-11-13T03:28:00.715Z,27.90
2022-11-13T03:30:47.978Z,32.53
2022-11-13T03:33:35.163Z,23.90
2022-11-13T03:36:21.449Z,27.42
2022-11-13T03:39:07.468Z,26.60
2022-11-13T03:41:55.945Z,27.88
2022-11-13T03:44:41.702Z,26.15
2022-11-13T03:47:27.685Z,33.80
2022-11-13T03:50:14.075Z,24.58
2022-11-13T03:52:59.708Z,25.63
2022-11-13T03:55:46.066Z,25.45
2022-11-13T03:58:32.133Z,26.20
2022-11-13T04:01:18.253Z,28.00
2022-11-13T04:04:04.315Z,27.33
2022-11-13T04:06:50.604Z,25.33
2022-11-13T04:09:36.401Z,25.58
2022-11-13T04:12:22.481Z,31.33
2022-11-13T04:15:08.709Z,21.55
2022-11-13T04:17:54.856Z,25.88
2022-11-13T04:20:46.137Z,26.55
2022-11-13T04:23:32.399Z,29.73
2022-11-13T04:26:18.256Z,26.73
2022-11-13T04:29:03.961Z,23.35
2022-11-13T04:31:49.793Z,25.40
2022-11-13T04:34:35.492Z,25.42
2022-11-13T04:37:22.439Z,21.80
2022-11-13T04:40:08.349Z,22.25
2022-11-13T04:42:54.719Z,23.38
2022-11-13T04:45:40.732Z,20.38
2022-11-13T04:48:26.877Z,20.85
2022-11-13T04:51:13.560Z,17.60
2022-11-13T04:53:59.247Z,23.17
2022-11-13T04:56:45.386Z,19.63
2022-11-13T04:59:31.399Z,19.98
2022-11-13T05:02:19.566Z,17.02
2022-11-13T05:05:05.780Z,22.35
2022-11-13T05:07:52.954Z,21.13
2022-11-13T05:10:39.230Z,25.13
2022-11-13T05:13:25.114Z,19.77
2022-11-13T05:16:12.170Z,23.77
2022-11-13T05:19:01.348Z,19.80
2022-11-13T05:21:47.218Z,20.20
2022-11-13T05:24:33.612Z,19.75
2022-11-13T05:27:19.747Z,17.40
2022-11-13T05:30:05.850Z,21.50
2022-11-13T05:32:55.011Z,20.77
2022-11-13T05:35:41.019Z,21.83
2022-11-13T05:38:27.126Z,17.73
2022-11-13T05:41:17.955Z,20.13
2022-11-13T05:44:03.638Z,20.00
2022-11-13T05:46:49.394Z,17.13
2022-11-13T05:49:35.307Z,22.30
2022-11-13T05:52:21.087Z,20.73
2022-11-13T05:55:07.823Z,21.38
2022-11-13T05:57:56.522Z,18.25
2022-11-13T06:00:42.213Z,20.83
2022-11-13T06:03:28.174Z,17.88
2022-11-13T06:06:15.330Z,23.45
2022-11-13T06:09:02.717Z,20.15
2022-11-13T06:11:48.979Z,23.02
2022-11-13T06:14:34.682Z,20.38
2022-11-13T06:17:20.667Z,16.73
2022-11-13T06:20:06.517Z,18.42
2022-11-13T06:22:54.935Z,19.92
2022-11-13T06:25:40.808Z,24.00
2022-11-13T06:28:26.978Z,22.20
2022-11-13T06:31:12.907Z,22.83
2022-11-13T06:34:00.438Z,19.95
2022-11-13T06:36:46.608Z,25.58
2022-11-13T06:39:32.565Z,21.95
2022-11-13T06:42:18.330Z,19.55
2022-11-13T06:45:04.597Z,20.38
2022-11-13T06:47:50.632Z,20.55
2022-11-13T06:50:36.361Z,18.95
2022-11-13T06:53:23.239Z,21.45
2022-11-13T06:56:09.404Z,23.48
2022-11-13T06:58:56.325Z,19.52
2022-11-13T07:01:42.203Z,17.17
2022-11-13T07:04:28.157Z,16.40
2022-11-13T07:07:14.153Z,15.57
2022-11-13T07:10:00.034Z,17.67
2022-11-13T07:12:48.377Z,14.95
2022-11-13T07:15:40.702Z,15.13
2022-11-13T07:18:27.349Z,15.30
2022-11-13T07:21:13.740Z,17.83
2022-11-13T07:24:03.024Z,15.23
2022-11-13T07:26:49.274Z,23.23
2022-11-13T07:29:36.625Z,15.82
2022-11-13T07:32:25.769Z,16.65
2022-11-13T07:35:11.949Z,16.25
2022-11-13T07:37:58.496Z,14.68
2022-11-13T07:40:44.553Z,15.15
2022-11-13T07:43:33.514Z,15.90
2022-11-13T07:46:19.455Z,16.90
2022-11-13T07:49:05.567Z,20.40
2022-11-13T07:51:51.605Z,16.83
2022-11-13T07:54:37.748Z,17.90
2022-11-13T07:57:24.463Z,19.23
2022-11-13T08:00:10.887Z,16.95
2022-11-13T08:02:56.768Z,18.02
2022-11-13T08:05:42.993Z,16.35
2022-11-13T08:08:29.095Z,15.20
2022-11-13T08:11:15.405Z,15.02
2022-11-13T08:14:01.225Z,13.85
2022-11-13T08:16:47.356Z,15.75
2022-11-13T08:19:33.497Z,13.45
2022-11-13T08:22:22.569Z,12.73
2022-11-13T08:25:08.907Z,14.88
2022-11-13T08:27:54.893Z,15.20
2022-11-13T08:30:43.642Z,11.85
2022-11-13T08:33:30.850Z,12.32
2022-11-13T08:36:16.679Z,12.85
2022-11-13T08:39:08.733Z,14.15
2022-11-13T08:41:54.741Z,13.60
2022-11-13T08:44:41.058Z,16.58
2022-11-13T08:47:29.681Z,10.80
2022-11-13T08:50:15.723Z,10.15
2022-11-13T08:53:02.023Z,12.35
2022-11-13T08:55:48.225Z,12.10
2022-11-13T08:58:34.283Z,12.88
2022-11-13T09:01:23.299Z,10.50
2022-11-13T09:04:09.359Z,11.10
2022-11-13T09:06:55.369Z,11.80
2022-11-13T09:09:41.210Z,12.40
2022-11-13T09:12:27.047Z,21.13
2022-11-13T09:15:13.092Z,12.60
2022-11-13T09:17:59.632Z,12.32
2022-11-13T09:20:45.534Z,12.27
2022-11-13T09:23:31.874Z,10.10
2022-11-13T09:26:18.167Z,11.50
2022-11-13T09:29:04.032Z,10.02
2022-11-13T09:31:50.552Z,11.23
2022-11-13T09:34:36.635Z,12.07
2022-11-13T09:37:22.817Z,13.68
2022-11-13T09:40:11.892Z,9.52
2022-11-13T09:42:58.443Z,12.85
2022-11-13T09:45:44.688Z,11.60
2022-11-13T09:48:36.180Z,9.80
2022-11-13T09:51:23.737Z,10.02
2022-11-13T09:54:14.443Z,10.32
2022-11-13T09:57:00.518Z,10.20
2022-11-13T09:59:46.538Z,10.25
2022-11-13T10:02:32.560Z,12.20
2022-11-13T10:05:23.849Z,10.85
2022-11-13T10:08:12.904Z,10.63
2022-11-13T10:10:59.005Z,13.00
2022-11-13T10:14:07.080Z,11.10
2022-11-13T10:16:55.433Z,11.13
2022-11-13T10:20:00.632Z,9.63
2022-11-13T10:22:57.472Z,8.90
2022-11-13T10:25:44.645Z,10.55
2022-11-13T10:31:56.297Z,8.18
2022-11-13T10:34:43.212Z,9.25
2022-11-13T10:37:44.464Z,9.52
2022-11-13T10:40:34.063Z,7.90
2022-11-13T10:43:21.648Z,8.50
2022-11-13T10:46:07.719Z,8.45
2022-11-13T10:48:53.781Z,9.00
2022-11-13T10:51:39.868Z,8.68
2022-11-13T10:54:31.190Z,7.80
2022-11-13T10:57:33.388Z,9.10
2022-11-13T11:00:21.065Z,7.72
2022-11-13T11:03:14.567Z,9.05
2022-11-13T11:06:01.774Z,8.10
2022-11-13T11:08:47.850Z,8.60
2022-11-13T11:12:09.479Z,10.20
2022-11-13T11:15:01.144Z,8.82
2022-11-13T11:17:54.007Z,8.82
2022-11-13T11:20:43.710Z,10.52
2022-11-13T11:23:37.747Z,8.73
2022-11-13T11:26:30.313Z,8.90
2022-11-13T11:29:37.181Z,8.85
2022-11-13T11:32:35.329Z,8.00
2022-11-13T11:35:22.858Z,8.38
2022-11-13T11:38:17.451Z,9.00
2022-11-13T11:41:17.053Z,9.43
2022-11-13T11:44:15.748Z,9.70
2022-11-13T11:47:03.022Z,8.32
2022-11-13T11:49:51.187Z,10.00
2022-11-13T11:52:43.170Z,9.10
2022-11-13T11:55:34.055Z,9.48
2022-11-13T11:58:34.334Z,9.93
2022-11-13T12:01:29.654Z,13.00
2022-11-13T12:04:34.376Z,13.50
2022-11-13T12:07:26.913Z,8.43
2022-11-13T12:10:28.177Z,12.63
2022-11-13T12:13:22.415Z,11.35
2022-11-13T12:16:25.494Z,9.80
2022-11-13T12:19:30.615Z,10.80
2022-11-13T12:22:19.298Z,9.55
2022-11-13T12:25:34.705Z,9.95
2022-11-13T12:28:21.099Z,9.73
2022-11-13T12:31:25.503Z,9.50
2022-11-13T12:34:15.787Z,7.68
2022-11-13T12:37:11.151Z,8.80
2022-11-13T12:39:58.491Z,6.95
2022-11-13T12:42:50.690Z,8.77
2022-11-13T12:45:39.974Z,7.15
2022-11-13T12:51:13.507Z,7.28
2022-11-13T12:53:59.306Z,7.88
2022-11-13T12:56:45.305Z,7.15
2022-11-13T12:59:40.142Z,8.48
2022-11-13T13:02:34.008Z,9.68
2022-11-13T13:05:28.994Z,8.05
2022-11-13T13:08:27.280Z,8.38
2022-11-13T13:11:30.419Z,7.38
2022-11-13T13:14:22.820Z,6.75
2022-11-13T13:17:15.212Z,6.05
2022-11-13T13:20:01.946Z,8.40
2022-11-13T13:22:56.704Z,7.22
2022-11-13T13:25:42.925Z,6.78
2022-11-13T13:28:29.164Z,9.48
2022-11-13T13:31:19.929Z,5.75
2022-11-13T13:34:16.020Z,7.40
2022-11-13T13:37:13.231Z,7.10
2022-11-13T13:40:01.926Z,7.75
2022-11-13T13:43:01.561Z,7.88
2022-11-13T13:46:02.232Z,7.25
2022-11-13T13:48:49.873Z,8.27
2022-11-13T13:51:42.065Z,7.60
2022-11-13T13:54:32.531Z,9.88
2022-11-13T13:57:18.464Z,9.50
2022-11-13T14:00:04.595Z,8.05
2022-11-13T14:02:54.053Z,7.63
2022-11-13T14:08:27.803Z,7.68
2022-11-13T14:11:18.410Z,8.40
2022-11-13T14:14:08.655Z,8.25
2022-11-13T14:16:58.916Z,9.10
2022-11-13T14:19:49.918Z,7.15
2022-11-13T14:22:38.076Z,6.25
2022-11-13T14:25:25.499Z,7.32
2022-11-13T14:28:38.148Z,10.75
2022-11-13T14:31:32.547Z,7.97
2022-11-13T14:34:20.319Z,8.75
2022-11-13T14:37:22.628Z,8.93
2022-11-13T14:40:16.187Z,9.38
2022-11-13T14:43:04.435Z,10.40
2022-11-13T14:46:13.648Z,10.05
2022-11-13T14:49:06.255Z,18.13
2022-11-13T14:51:59.011Z,11.10
2022-11-13T14:55:13.659Z,9.88
2022-11-13T14:57:54.172Z,10.02
2022-11-13T15:00:39.974Z,9.50
2022-11-13T15:03:26.943Z,8.95
2022-11-13T15:06:17.504Z,8.00
2022-11-13T15:09:03.610Z,9.18
2022-11-13T15:11:52.724Z,9.30
2022-11-13T15:14:46.487Z,11.32
2022-11-13T15:17:32.794Z,10.48
2022-11-13T15:20:30.069Z,11.70
2022-11-13T15:23:17.356Z,9.57
2022-11-13T15:26:19.632Z,10.73
2022-11-13T15:29:08.316Z,11.82
2022-11-13T15:32:03.655Z,12.15
2022-11-13T15:34:49.937Z,14.00
2022-11-13T15:37:36.422Z,13.82
2022-11-13T15:40:22.434Z,14.45
2022-11-13T15:43:22.558Z,12.80
2022-11-13T15:46:14.776Z,9.07
2022-11-13T15:49:03.105Z,11.77
2022-11-13T15:51:48.942Z,10.20
2022-11-13T15:54:42.573Z,11.15
2022-11-13T15:57:30.831Z,14.63
2022-11-13T16:00:39.167Z,12.48
2022-11-13T16:03:56.311Z,14.70
2022-11-13T16:06:42.438Z,10.63
2022-11-13T16:09:32.450Z,11.68
2022-11-13T16:12:20.839Z,12.52
2022-11-13T16:15:07.321Z,14.35
2022-11-13T16:17:55.462Z,16.17
2022-11-13T16:20:41.763Z,14.00
2022-11-13T16:23:28.234Z,12.77
2022-11-13T16:26:22.638Z,14.35
2022-11-13T16:29:24.573Z,11.93
2022-11-13T16:32:19.608Z,16.02
2022-11-13T16:35:05.732Z,13.35
2022-11-13T16:37:51.787Z,16.17
2022-11-13T16:40:37.811Z,13.68
2022-11-13T16:43:23.689Z,16.95
2022-11-13T16:46:35.700Z,14.25
2022-11-13T16:49:21.717Z,14.85
2022-11-13T16:52:10.587Z,16.35
2022-11-13T16:55:02.220Z,25.25
2022-11-13T16:57:51.761Z,23.08
2022-11-13T17:00:37.777Z,27.90
2022-11-13T17:03:23.762Z,19.38
2022-11-13T17:06:21.724Z,19.35
2022-11-13T17:09:16.790Z,20.73
2022-11-13T17:12:08.441Z,18.80
2022-11-13T17:14:57.238Z,17.23
2022-11-13T17:17:43.469Z,18.65
2022-11-13T17:20:29.963Z,13.68
2022-11-13T17:23:18.713Z,16.92
2022-11-13T17:26:07.306Z,16.48
2022-11-13T17:29:03.301Z,18.85
2022-11-13T17:31:58.933Z,18.58
2022-11-13T17:34:47.847Z,21.55
2022-11-13T17:37:37.257Z,19.03
2022-11-13T17:40:23.543Z,19.15
2022-11-13T17:43:14.024Z,19.08
2022-11-13T17:46:07.487Z,21.30
2022-11-13T17:48:57.565Z,22.25
2022-11-13T17:51:46.009Z,20.40
2022-11-13T17:54:34.586Z,19.02
2022-11-13T17:57:27.050Z,21.02
2022-11-13T18:00:13.636Z,21.85
2022-11-13T18:03:03.081Z,21.42
2022-11-13T18:05:49.409Z,21.17
2022-11-13T18:08:35.997Z,21.95
2022-11-13T18:11:29.217Z,17.38
2022-11-13T18:14:15.467Z,18.63
2022-11-13T18:17:01.464Z,17.48
2022-11-13T18:19:47.622Z,18.38
2022-11-13T18:22:33.811Z,17.85
2022-11-13T18:25:19.958Z,17.23
2022-11-13T18:28:07.263Z,18.10
2022-11-13T18:30:56.683Z,17.17
2022-11-13T18:33:44.178Z,19.55
2022-11-13T18:36:32.316Z,16.33
2022-11-13T18:39:27.305Z,22.90
2022-11-13T19:01:26.737Z,24.10
2022-11-13T19:04:29.816Z,25.58
2022-11-13T19:24:01.331Z,24.42
2022-11-13T19:40:53.083Z,25.13
2022-11-13T19:43:40.100Z,34.45
2022-11-13T19:46:26.270Z,36.00
2022-11-13T20:41:54.356Z,28.73
2022-11-13T20:45:02.139Z,31.65
2022-11-13T20:50:53.422Z,31.83
2022-11-13T20:53:47.825Z,30.63
2022-11-13T20:56:48.222Z,30.90
2022-11-13T20:59:37.125Z,27.95
2022-11-13T21:02:33.782Z,30.33
2022-11-13T21:05:19.751Z,30.25
2022-11-13T21:08:08.216Z,33.17
2022-11-13T21:11:27.308Z,29.48
2022-11-13T21:14:21.097Z,30.33
2022-11-13T21:17:07.442Z,27.55
2022-11-13T21:19:57.867Z,28.42
2022-11-13T21:22:44.685Z,32.05
2022-11-13T21:25:30.875Z,28.13
2022-11-13T21:28:23.675Z,25.45
2022-11-13T21:31:57.231Z,31.77
2022-11-13T21:34:47.442Z,29.88
2022-11-13T21:37:43.578Z,31.33
2022-11-13T23:30:19.215Z,25.73
2022-11-13T23:33:05.491Z,22.92
2022-11-13T23:35:52.255Z,18.73
2022-11-13T23:38:39.381Z,22.02
2022-11-13T23:41:25.327Z,19.58
2022-11-13T23:44:11.932Z,19.70
2022-11-13T23:46:57.893Z,21.13
2022-11-13T23:49:43.920Z,21.77
2022-11-13T23:52:29.893Z,20.92
2022-11-13T23:55:16.351Z,20.38
2022-11-13T23:58:03.619Z,22.60
